sensor_id;sensor_type;location;lat;lon;timestamp;temperature;humidity
18506;DHT22;9382;53.242;10.438;2024-01-30T01:59:30;4.60;99.90
18506;DHT22;9382;53.242;10.438;2024-01-30T02:05:24;4.60;99.90
18506;DHT22;9382;53.242;10.438;2024-01-30T02:05:52;4.50;99.90
18506;DHT22;9382;53.242;10.438;2024-01-30T02:08:19;4.50;99.90
18506;DHT22;9382;53.242;10.438;2024-01-30T02:10:49;4.50;99.90
18506;DHT22;9382;53.242;10.438;2024-01-30T02:13:18;4.50;99.90
18506;DHT22;9382;53.242;10.438;2024-01-30T02:15:49;4.50;99.90
18506;DHT22;9382;53.242;10.438;2024-01-30T02:18:16;4.50;99.90
18506;DHT22;9382;53.242;10.438;2024-01-30T02:20:48;4.50;99.90
18506;DHT22;9382;53.242;10.438;2024-01-30T02:23:17;4.50;99.90
18506;DHT22;9382;53.242;10.438;2024-01-30T02:25:45;4.50;99.90
18506;DHT22;9382;53.242;10.438;2024-01-30T02:28:17;4.50;99.90
18506;DHT22;9382;53.242;10.438;2024-01-30T02:30:47;4.50;99.90
18506;DHT22;9382;53.242;10.438;2024-01-30T02:33:26;4.50;99.90
18506;DHT22;9382;53.242;10.438;2024-01-30T02:35:54;4.50;99.90
18506;DHT22;9382;53.242;10.438;2024-01-30T02:38:23;4.50;99.90
18506;DHT22;9382;53.242;10.438;2024-01-30T02:40:52;4.60;99.90
18506;DHT22;9382;53.242;10.438;2024-01-30T02:43:22;4.50;99.90
18506;DHT22;9382;53.242;10.438;2024-01-30T03:31:09;4.40;99.90
18506;DHT22;9382;53.242;10.438;2024-01-30T03:34:23;4.40;99.90
18506;DHT22;9382;53.242;10.438;2024-01-30T03:37:38;4.40;99.90
18506;DHT22;9382;53.242;10.438;2024-01-30T04:15:06;4.10;99.90
18506;DHT22;9382;53.242;10.438;2024-01-30T04:25:34;4.10;99.90
18506;DHT22;9382;53.242;10.438;2024-01-30T04:47:14;4.40;99.90
18506;DHT22;9382;53.242;10.438;2024-01-30T05:31:12;4.10;99.90
18506;DHT22;9382;53.242;10.438;2024-01-30T05:51:27;4.10;99.90
18506;DHT22;9382;53.242;10.438;2024-01-30T05:54:53;4.10;99.90
18506;DHT22;9382;53.242;10.438;2024-01-30T06:31:04;4.20;99.90
18506;DHT22;9382;53.242;10.438;2024-01-30T07:41:54;4.90;99.90
18506;DHT22;9382;53.242;10.438;2024-01-30T07:55:00;5.10;99.90
18506;DHT22;9382;53.242;10.438;2024-01-30T07:57:55;5.20;99.90
18506;DHT22;9382;53.242;10.438;2024-01-30T08:00:31;5.30;99.90
18506;DHT22;9382;53.242;10.438;2024-01-30T08:03:14;5.40;99.90
18506;DHT22;9382;53.242;10.438;2024-01-30T08:06:00;5.40;99.90
18506;DHT22;9382;53.242;10.438;2024-01-30T08:08:48;5.50;99.90
18506;DHT22;9382;53.242;10.438;2024-01-30T08:14:29;5.60;99.90
18506;DHT22;9382;53.242;10.438;2024-01-30T08:17:13;5.70;99.90
18506;DHT22;9382;53.242;10.438;2024-01-30T08:20:03;5.70;99.90
18506;DHT22;9382;53.242;10.438;2024-01-30T08:27:00;5.90;99.90
18506;DHT22;9382;53.242;10.438;2024-01-30T08:30:06;5.90;99.90
18506;DHT22;9382;53.242;10.438;2024-01-30T08:33:34;6.00;99.90
18506;DHT22;9382;53.242;10.438;2024-01-30T08:37:18;6.00;99.90
18506;DHT22;9382;53.242;10.438;2024-01-30T08:47:16;6.30;99.90
18506;DHT22;9382;53.242;10.438;2024-01-30T08:54:05;6.40;99.90
18506;DHT22;9382;53.242;10.438;2024-01-30T09:00:13;6.50;99.90
18506;DHT22;9382;53.242;10.438;2024-01-30T09:06:55;6.60;99.90
18506;DHT22;9382;53.242;10.438;2024-01-30T09:09:45;6.70;99.90
18506;DHT22;9382;53.242;10.438;2024-01-30T09:15:22;6.80;99.90
18506;DHT22;9382;53.242;10.438;2024-01-30T09:17:49;6.90;99.90
18506;DHT22;9382;53.242;10.438;2024-01-30T09:27:17;7.20;99.90
18506;DHT22;9382;53.242;10.438;2024-01-30T09:41:25;7.70;99.90
18506;DHT22;9382;53.242;10.438;2024-01-30T09:50:03;8.10;99.90
18506;DHT22;9382;53.242;10.438;2024-01-30T09:52:34;8.10;99.90
18506;DHT22;9382;53.242;10.438;2024-01-30T09:55:01;8.20;99.90
18506;DHT22;9382;53.242;10.438;2024-01-30T09:57:30;8.20;99.90
18506;DHT22;9382;53.242;10.438;2024-01-30T10:00:01;8.20;99.90
18506;DHT22;9382;53.242;10.438;2024-01-30T10:03:01;8.20;99.90
18506;DHT22;9382;53.242;10.438;2024-01-30T10:05:42;8.20;99.90
18506;DHT22;9382;53.242;10.438;2024-01-30T10:08:22;8.30;99.90
18506;DHT22;9382;53.242;10.438;2024-01-30T10:10:57;8.40;99.90
18506;DHT22;9382;53.242;10.438;2024-01-30T10:13:26;8.50;99.90
18506;DHT22;9382;53.242;10.438;2024-01-30T10:15:53;8.60;99.90
18506;DHT22;9382;53.242;10.438;2024-01-30T10:18:26;8.60;99.90
18506;DHT22;9382;53.242;10.438;2024-01-30T10:20:55;8.60;99.90
18506;DHT22;9382;53.242;10.438;2024-01-30T10:23:22;8.60;99.90
18506;DHT22;9382;53.242;10.438;2024-01-30T10:25:51;8.70;99.90
18506;DHT22;9382;53.242;10.438;2024-01-30T10:28:30;8.70;99.90
18506;DHT22;9382;53.242;10.438;2024-01-30T10:31:00;8.90;99.90
18506;DHT22;9382;53.242;10.438;2024-01-30T10:33:41;9.00;99.90
18506;DHT22;9382;53.242;10.438;2024-01-30T10:36:14;9.20;99.90
18506;DHT22;9382;53.242;10.438;2024-01-30T10:38:54;9.30;99.90
18506;DHT22;9382;53.242;10.438;2024-01-30T10:41:27;9.50;99.90
18506;DHT22;9382;53.242;10.438;2024-01-30T10:44:02;9.70;99.90
18506;DHT22;9382;53.242;10.438;2024-01-30T10:46:32;9.80;99.90
18506;DHT22;9382;53.242;10.438;2024-01-30T10:49:00;9.90;99.90
18506;DHT22;9382;53.242;10.438;2024-01-30T10:51:33;10.00;99.90
18506;DHT22;9382;53.242;10.438;2024-01-30T10:54:03;10.20;99.90
18506;DHT22;9382;53.242;10.438;2024-01-30T10:56:40;10.30;99.90
18506;DHT22;9382;53.242;10.438;2024-01-30T10:59:20;10.40;99.90
18506;DHT22;9382;53.242;10.438;2024-01-30T11:02:05;10.50;99.90
18506;DHT22;9382;53.242;10.438;2024-01-30T11:04:43;10.70;99.90
18506;DHT22;9382;53.242;10.438;2024-01-30T11:07:24;10.70;99.90
18506;DHT22;9382;53.242;10.438;2024-01-30T11:10:03;10.80;99.90
18506;DHT22;9382;53.242;10.438;2024-01-30T11:12:31;10.90;99.90
18506;DHT22;9382;53.242;10.438;2024-01-30T11:15:06;11.00;99.90
18506;DHT22;9382;53.242;10.438;2024-01-30T11:17:50;11.00;99.90
18506;DHT22;9382;53.242;10.438;2024-01-30T11:23:26;11.10;99.90
18506;DHT22;9382;53.242;10.438;2024-01-30T11:25:53;11.10;99.90
18506;DHT22;9382;53.242;10.438;2024-01-30T11:28:30;11.10;99.90
18506;DHT22;9382;53.242;10.438;2024-01-30T11:31:10;11.10;99.90
18506;DHT22;9382;53.242;10.438;2024-01-30T11:33:45;11.10;99.90
18506;DHT22;9382;53.242;10.438;2024-01-30T11:36:17;11.20;99.90
18506;DHT22;9382;53.242;10.438;2024-01-30T11:39:22;11.20;99.90
18506;DHT22;9382;53.242;10.438;2024-01-30T11:41:56;11.30;99.90
18506;DHT22;9382;53.242;10.438;2024-01-30T11:44:24;11.30;99.90
18506;DHT22;9382;53.242;10.438;2024-01-30T11:46:52;11.40;99.90
18506;DHT22;9382;53.242;10.438;2024-01-30T11:49:24;11.40;99.90
18506;DHT22;9382;53.242;10.438;2024-01-30T11:51:55;11.40;99.90
18506;DHT22;9382;53.242;10.438;2024-01-30T11:54:25;11.40;99.90
18506;DHT22;9382;53.242;10.438;2024-01-30T11:57:09;11.30;99.90
18506;DHT22;9382;53.242;10.438;2024-01-30T11:59:47;11.40;99.90
18506;DHT22;9382;53.242;10.438;2024-01-30T12:02:20;11.40;99.90
18506;DHT22;9382;53.242;10.438;2024-01-30T12:04:54;11.40;99.90
18506;DHT22;9382;53.242;10.438;2024-01-30T12:07:21;11.40;99.90
18506;DHT22;9382;53.242;10.438;2024-01-30T12:10:00;11.40;99.90
18506;DHT22;9382;53.242;10.438;2024-01-30T12:12:35;11.40;99.90
18506;DHT22;9382;53.242;10.438;2024-01-30T12:15:07;11.40;99.90
18506;DHT22;9382;53.242;10.438;2024-01-30T12:17:40;11.40;99.90
18506;DHT22;9382;53.242;10.438;2024-01-30T12:20:09;11.40;99.90
18506;DHT22;9382;53.242;10.438;2024-01-30T12:22:50;11.40;99.90
18506;DHT22;9382;53.242;10.438;2024-01-30T12:25:23;11.40;99.90
18506;DHT22;9382;53.242;10.438;2024-01-30T12:27:52;11.40;99.90
18506;DHT22;9382;53.242;10.438;2024-01-30T12:30:36;11.40;99.90
18506;DHT22;9382;53.242;10.438;2024-01-30T12:33:26;11.40;99.90
18506;DHT22;9382;53.242;10.438;2024-01-30T12:36:11;11.40;99.90
18506;DHT22;9382;53.242;10.438;2024-01-30T12:38:44;11.50;99.90
18506;DHT22;9382;53.242;10.438;2024-01-30T12:41:19;11.60;99.90
18506;DHT22;9382;53.242;10.438;2024-01-30T12:43:49;11.60;99.90
18506;DHT22;9382;53.242;10.438;2024-01-30T12:46:19;11.70;99.90
18506;DHT22;9382;53.242;10.438;2024-01-30T12:48:49;11.60;99.90
18506;DHT22;9382;53.242;10.438;2024-01-30T12:51:15;11.60;99.90
18506;DHT22;9382;53.242;10.438;2024-01-30T12:53:42;11.50;99.90
18506;DHT22;9382;53.242;10.438;2024-01-30T12:56:23;11.50;99.90
18506;DHT22;9382;53.242;10.438;2024-01-30T12:58:51;11.40;99.90
18506;DHT22;9382;53.242;10.438;2024-01-30T13:01:21;11.40;99.90
18506;DHT22;9382;53.242;10.438;2024-01-30T13:04:12;11.40;99.90
18506;DHT22;9382;53.242;10.438;2024-01-30T13:06:45;11.30;99.90
18506;DHT22;9382;53.242;10.438;2024-01-30T13:09:18;11.30;99.90
18506;DHT22;9382;53.242;10.438;2024-01-30T13:12:26;11.30;99.90
18506;DHT22;9382;53.242;10.438;2024-01-30T13:15:02;11.20;99.90
18506;DHT22;9382;53.242;10.438;2024-01-30T13:21:04;11.20;99.90
18506;DHT22;9382;53.242;10.438;2024-01-30T13:31:05;11.20;99.90
18506;DHT22;9382;53.242;10.438;2024-01-30T13:36:59;11.10;99.90
18506;DHT22;9382;53.242;10.438;2024-01-30T13:49:36;11.20;99.90
18506;DHT22;9382;53.242;10.438;2024-01-30T13:52:24;11.10;99.90
18506;DHT22;9382;53.242;10.438;2024-01-30T13:58:09;11.00;99.90
18506;DHT22;9382;53.242;10.438;2024-01-30T14:00:43;11.00;99.90
18506;DHT22;9382;53.242;10.438;2024-01-30T14:03:40;11.00;99.90
18506;DHT22;9382;53.242;10.438;2024-01-30T14:06:40;11.10;99.90
18506;DHT22;9382;53.242;10.438;2024-01-30T14:09:24;11.00;99.90
18506;DHT22;9382;53.242;10.438;2024-01-30T14:15:00;10.90;99.90
18506;DHT22;9382;53.242;10.438;2024-01-30T14:23:58;10.90;99.90
18506;DHT22;9382;53.242;10.438;2024-01-30T14:26:36;10.90;99.90
18506;DHT22;9382;53.242;10.438;2024-01-30T14:29:20;10.90;99.90
18506;DHT22;9382;53.242;10.438;2024-01-30T14:32:00;10.90;99.90
18506;DHT22;9382;53.242;10.438;2024-01-30T14:34:47;10.90;99.90
18506;DHT22;9382;53.242;10.438;2024-01-30T14:50:51;11.00;99.90
18506;DHT22;9382;53.242;10.438;2024-01-30T14:53:32;11.00;99.90
18506;DHT22;9382;53.242;10.438;2024-01-30T14:56:08;11.00;99.90
18506;DHT22;9382;53.242;10.438;2024-01-30T14:58:38;11.00;99.90
18506;DHT22;9382;53.242;10.438;2024-01-30T15:01:11;11.00;99.90
18506;DHT22;9382;53.242;10.438;2024-01-30T15:03:38;11.00;99.90
18506;DHT22;9382;53.242;10.438;2024-01-30T15:06:07;11.10;99.90
18506;DHT22;9382;53.242;10.438;2024-01-30T15:08:37;11.10;99.90
18506;DHT22;9382;53.242;10.438;2024-01-30T15:11:09;11.00;99.90
18506;DHT22;9382;53.242;10.438;2024-01-30T15:13:36;11.00;99.90
18506;DHT22;9382;53.242;10.438;2024-01-30T15:16:14;11.00;99.90
18506;DHT22;9382;53.242;10.438;2024-01-30T15:19:02;11.00;99.90
18506;DHT22;9382;53.242;10.438;2024-01-30T15:21:34;11.00;99.90
18506;DHT22;9382;53.242;10.438;2024-01-30T15:24:11;10.90;99.90
18506;DHT22;9382;53.242;10.438;2024-01-30T15:26:52;11.00;99.90
18506;DHT22;9382;53.242;10.438;2024-01-30T15:29:23;10.90;99.90
18506;DHT22;9382;53.242;10.438;2024-01-30T15:32:00;10.90;99.90
18506;DHT22;9382;53.242;10.438;2024-01-30T15:34:37;11.00;99.90
18506;DHT22;9382;53.242;10.438;2024-01-30T15:37:07;10.90;99.90
18506;DHT22;9382;53.242;10.438;2024-01-30T15:39:34;11.00;99.90
18506;DHT22;9382;53.242;10.438;2024-01-30T15:42:23;11.00;99.90
18506;DHT22;9382;53.242;10.438;2024-01-30T15:45:13;11.00;99.90
18506;DHT22;9382;53.242;10.438;2024-01-30T15:48:04;10.90;99.90
18506;DHT22;9382;53.242;10.438;2024-01-30T15:50:36;10.90;99.90
18506;DHT22;9382;53.242;10.438;2024-01-30T15:53:31;10.90;99.90
18506;DHT22;9382;53.242;10.438;2024-01-30T15:56:06;11.00;99.90
18506;DHT22;9382;53.242;10.438;2024-01-30T15:58:38;11.00;99.90
18506;DHT22;9382;53.242;10.438;2024-01-30T16:01:05;11.00;99.90
18506;DHT22;9382;53.242;10.438;2024-01-30T16:03:44;11.00;99.90
18506;DHT22;9382;53.242;10.438;2024-01-30T16:06:24;11.00;99.90
18506;DHT22;9382;53.242;10.438;2024-01-30T16:08:57;11.00;99.90
18506;DHT22;9382;53.242;10.438;2024-01-30T16:11:33;11.00;99.90
18506;DHT22;9382;53.242;10.438;2024-01-30T16:14:02;10.90;99.90
18506;DHT22;9382;53.242;10.438;2024-01-30T16:16:52;10.90;99.90
18506;DHT22;9382;53.242;10.438;2024-01-30T16:20:03;10.90;99.90
18506;DHT22;9382;53.242;10.438;2024-01-30T16:22:48;10.90;99.90
18506;DHT22;9382;53.242;10.438;2024-01-30T16:25:31;10.90;99.90
18506;DHT22;9382;53.242;10.438;2024-01-30T16:28:07;10.80;99.90
18506;DHT22;9382;53.242;10.438;2024-01-30T16:30:50;10.80;99.90
18506;DHT22;9382;53.242;10.438;2024-01-30T16:33:56;10.70;99.90
18506;DHT22;9382;53.242;10.438;2024-01-30T16:36:31;10.70;99.90
18506;DHT22;9382;53.242;10.438;2024-01-30T16:58:53;10.60;99.90
18506;DHT22;9382;53.242;10.438;2024-01-30T17:02:02;10.70;99.90
18506;DHT22;9382;53.242;10.438;2024-01-30T17:11:20;10.70;99.90
18506;DHT22;9382;53.242;10.438;2024-01-30T17:14:32;10.70;99.90
18506;DHT22;9382;53.242;10.438;2024-01-30T17:20:44;10.70;99.90
18506;DHT22;9382;53.242;10.438;2024-01-30T17:30:11;10.80;99.90
18506;DHT22;9382;53.242;10.438;2024-01-30T17:32:38;10.70;99.90
18506;DHT22;9382;53.242;10.438;2024-01-30T17:38:35;10.80;99.90
18506;DHT22;9382;53.242;10.438;2024-01-30T17:41:25;10.90;99.90
18506;DHT22;9382;53.242;10.438;2024-01-30T17:44:00;10.90;99.90
18506;DHT22;9382;53.242;10.438;2024-01-30T17:46:28;10.80;99.90
18506;DHT22;9382;53.242;10.438;2024-01-30T17:49:18;10.90;99.90
18506;DHT22;9382;53.242;10.438;2024-01-30T17:51:45;10.90;99.90
18506;DHT22;9382;53.242;10.438;2024-01-30T17:54:15;10.90;99.90
18506;DHT22;9382;53.242;10.438;2024-01-30T17:56:52;10.90;99.90
18506;DHT22;9382;53.242;10.438;2024-01-30T17:59:24;10.90;99.90
18506;DHT22;9382;53.242;10.438;2024-01-30T18:02:05;10.90;99.90
18506;DHT22;9382;53.242;10.438;2024-01-30T18:05:08;10.90;99.90
18506;DHT22;9382;53.242;10.438;2024-01-30T18:08:03;10.90;99.90
18506;DHT22;9382;53.242;10.438;2024-01-30T18:10:49;10.80;99.90
18506;DHT22;9382;53.242;10.438;2024-01-30T18:13:22;10.90;99.90
18506;DHT22;9382;53.242;10.438;2024-01-30T18:16:05;10.90;99.90
18506;DHT22;9382;53.242;10.438;2024-01-30T18:18:57;10.90;99.90
18506;DHT22;9382;53.242;10.438;2024-01-30T18:21:26;10.90;99.90
18506;DHT22;9382;53.242;10.438;2024-01-30T18:23:54;10.90;99.90
18506;DHT22;9382;53.242;10.438;2024-01-30T18:26:29;10.90;99.90
18506;DHT22;9382;53.242;10.438;2024-01-30T18:29:19;10.90;99.90
18506;DHT22;9382;53.242;10.438;2024-01-30T18:31:49;10.90;99.90
18506;DHT22;9382;53.242;10.438;2024-01-30T18:34:22;10.90;99.90
18506;DHT22;9382;53.242;10.438;2024-01-30T18:37:10;10.90;99.90
18506;DHT22;9382;53.242;10.438;2024-01-30T18:42:55;10.90;99.90
18506;DHT22;9382;53.242;10.438;2024-01-30T18:48:37;10.90;99.90
18506;DHT22;9382;53.242;10.438;2024-01-30T18:51:18;10.90;99.90
18506;DHT22;9382;53.242;10.438;2024-01-30T18:54:02;10.90;99.90
18506;DHT22;9382;53.242;10.438;2024-01-30T18:56:37;10.90;99.90
18506;DHT22;9382;53.242;10.438;2024-01-30T18:59:04;10.90;99.90
18506;DHT22;9382;53.242;10.438;2024-01-30T19:01:34;10.90;99.90
18506;DHT22;9382;53.242;10.438;2024-01-30T19:04:04;10.90;99.90
18506;DHT22;9382;53.242;10.438;2024-01-30T19:06:32;10.90;99.90
18506;DHT22;9382;53.242;10.438;2024-01-30T19:08:59;10.90;99.90
18506;DHT22;9382;53.242;10.438;2024-01-30T19:11:26;10.90;99.90
18506;DHT22;9382;53.242;10.438;2024-01-30T19:13:57;10.80;99.90
18506;DHT22;9382;53.242;10.438;2024-01-30T19:16:25;10.80;99.90
18506;DHT22;9382;53.242;10.438;2024-01-30T19:18:55;10.80;99.90
18506;DHT22;9382;53.242;10.438;2024-01-30T19:21:22;10.80;99.90
18506;DHT22;9382;53.242;10.438;2024-01-30T19:23:51;10.80;99.90
18506;DHT22;9382;53.242;10.438;2024-01-30T19:26:22;10.80;99.90
18506;DHT22;9382;53.242;10.438;2024-01-30T19:28:49;10.70;99.90
18506;DHT22;9382;53.242;10.438;2024-01-30T19:31:16;10.80;99.90
18506;DHT22;9382;53.242;10.438;2024-01-30T19:33:43;10.70;99.90
18506;DHT22;9382;53.242;10.438;2024-01-30T19:36:10;10.70;99.90
18506;DHT22;9382;53.242;10.438;2024-01-30T19:38:44;10.70;99.90
18506;DHT22;9382;53.242;10.438;2024-01-30T19:41:22;10.70;99.90
18506;DHT22;9382;53.242;10.438;2024-01-30T19:43:49;10.60;99.90
18506;DHT22;9382;53.242;10.438;2024-01-30T19:46:21;10.60;99.90
18506;DHT22;9382;53.242;10.438;2024-01-30T19:48:59;10.50;99.90
18506;DHT22;9382;53.242;10.438;2024-01-30T19:51:30;10.50;99.90
18506;DHT22;9382;53.242;10.438;2024-01-30T19:53:57;10.40;99.90
18506;DHT22;9382;53.242;10.438;2024-01-30T19:56:32;10.40;99.90
18506;DHT22;9382;53.242;10.438;2024-01-30T19:59:05;10.40;99.90
18506;DHT22;9382;53.242;10.438;2024-01-30T20:01:34;10.40;99.90
18506;DHT22;9382;53.242;10.438;2024-01-30T20:04:04;10.40;99.90
18506;DHT22;9382;53.242;10.438;2024-01-30T20:06:31;10.40;99.90
18506;DHT22;9382;53.242;10.438;2024-01-30T20:08:58;10.30;99.90
18506;DHT22;9382;53.242;10.438;2024-01-30T20:11:25;10.30;99.90
18506;DHT22;9382;53.242;10.438;2024-01-30T20:14:04;10.30;99.90
18506;DHT22;9382;53.242;10.438;2024-01-30T20:16:40;10.20;99.90
18506;DHT22;9382;53.242;10.438;2024-01-30T20:19:09;10.20;99.90
18506;DHT22;9382;53.242;10.438;2024-01-30T20:21:40;10.20;99.90
18506;DHT22;9382;53.242;10.438;2024-01-30T20:24:08;10.20;99.90
18506;DHT22;9382;53.242;10.438;2024-01-30T20:26:39;10.20;99.90
18506;DHT22;9382;53.242;10.438;2024-01-30T20:29:10;10.10;99.90
18506;DHT22;9382;53.242;10.438;2024-01-30T20:31:38;10.10;99.90
18506;DHT22;9382;53.242;10.438;2024-01-30T20:34:18;10.10;99.90
18506;DHT22;9382;53.242;10.438;2024-01-30T20:36:54;10.10;99.90
18506;DHT22;9382;53.242;10.438;2024-01-30T20:39:24;10.00;99.90
18506;DHT22;9382;53.242;10.438;2024-01-30T20:41:50;10.00;99.90
18506;DHT22;9382;53.242;10.438;2024-01-30T20:44:28;10.00;99.90
18506;DHT22;9382;53.242;10.438;2024-01-30T20:46:58;9.90;99.90
18506;DHT22;9382;53.242;10.438;2024-01-30T20:49:27;9.90;99.90
18506;DHT22;9382;53.242;10.438;2024-01-30T20:51:57;9.80;99.90
18506;DHT22;9382;53.242;10.438;2024-01-30T20:54:26;9.80;99.90
18506;DHT22;9382;53.242;10.438;2024-01-30T20:57:00;9.70;99.90
18506;DHT22;9382;53.242;10.438;2024-01-30T20:59:31;9.70;99.90
18506;DHT22;9382;53.242;10.438;2024-01-30T21:02:08;9.60;99.90
18506;DHT22;9382;53.242;10.438;2024-01-30T21:04:39;9.60;99.90
18506;DHT22;9382;53.242;10.438;2024-01-30T21:07:10;9.60;99.90
18506;DHT22;9382;53.242;10.438;2024-01-30T21:09:37;9.50;99.90
18506;DHT22;9382;53.242;10.438;2024-01-30T21:12:06;9.50;99.90
18506;DHT22;9382;53.242;10.438;2024-01-30T21:14:34;9.50;99.90
18506;DHT22;9382;53.242;10.438;2024-01-30T21:17:03;9.50;99.90
18506;DHT22;9382;53.242;10.438;2024-01-30T21:19:32;9.40;99.90
18506;DHT22;9382;53.242;10.438;2024-01-30T21:22:01;9.40;99.90
18506;DHT22;9382;53.242;10.438;2024-01-30T21:24:30;9.40;99.90
18506;DHT22;9382;53.242;10.438;2024-01-30T21:27:04;9.30;99.90
18506;DHT22;9382;53.242;10.438;2024-01-30T21:29:35;9.30;99.90
18506;DHT22;9382;53.242;10.438;2024-01-30T21:32:03;9.30;99.90
18506;DHT22;9382;53.242;10.438;2024-01-30T21:34:31;9.20;99.90
18506;DHT22;9382;53.242;10.438;2024-01-30T21:36:58;9.20;99.90
18506;DHT22;9382;53.242;10.438;2024-01-30T21:39:25;9.20;99.90
18506;DHT22;9382;53.242;10.438;2024-01-30T21:41:51;9.10;99.90
18506;DHT22;9382;53.242;10.438;2024-01-30T21:44:22;9.10;99.90
18506;DHT22;9382;53.242;10.438;2024-01-30T21:47:11;9.00;99.90
18506;DHT22;9382;53.242;10.438;2024-01-30T21:49:38;9.00;99.90
18506;DHT22;9382;53.242;10.438;2024-01-30T21:54:50;8.80;99.90
18506;DHT22;9382;53.242;10.438;2024-01-30T21:57:17;8.70;99.90
18506;DHT22;9382;53.242;10.438;2024-01-30T21:59:47;8.60;99.90
18506;DHT22;9382;53.242;10.438;2024-01-30T22:02:24;8.60;99.90
18506;DHT22;9382;53.242;10.438;2024-01-30T22:04:51;8.50;99.90
18506;DHT22;9382;53.242;10.438;2024-01-30T22:07:18;8.50;99.90
18506;DHT22;9382;53.242;10.438;2024-01-30T22:09:48;8.50;99.90
18506;DHT22;9382;53.242;10.438;2024-01-30T22:12:28;8.40;99.90
18506;DHT22;9382;53.242;10.438;2024-01-30T22:15:35;8.40;99.90
18506;DHT22;9382;53.242;10.438;2024-01-30T22:18:31;8.40;99.90
18506;DHT22;9382;53.242;10.438;2024-01-30T22:21:00;8.40;99.90
18506;DHT22;9382;53.242;10.438;2024-01-30T22:23:38;8.40;99.90
18506;DHT22;9382;53.242;10.438;2024-01-30T22:26:08;8.40;99.90
18506;DHT22;9382;53.242;10.438;2024-01-30T22:28:35;8.40;99.90
18506;DHT22;9382;53.242;10.438;2024-01-30T22:31:08;8.30;99.90
18506;DHT22;9382;53.242;10.438;2024-01-30T22:33:39;8.30;99.90
18506;DHT22;9382;53.242;10.438;2024-01-30T22:36:08;8.30;99.90
18506;DHT22;9382;53.242;10.438;2024-01-30T22:38:36;8.30;99.90
18506;DHT22;9382;53.242;10.438;2024-01-30T22:41:05;8.30;99.90
18506;DHT22;9382;53.242;10.438;2024-01-30T22:43:32;8.30;99.90
18506;DHT22;9382;53.242;10.438;2024-01-30T22:46:04;8.30;99.90
18506;DHT22;9382;53.242;10.438;2024-01-30T22:48:30;8.20;99.90
18506;DHT22;9382;53.242;10.438;2024-01-30T22:50:59;8.20;99.90
18506;DHT22;9382;53.242;10.438;2024-01-30T22:53:33;8.20;99.90
18506;DHT22;9382;53.242;10.438;2024-01-30T22:56:01;8.10;99.90
18506;DHT22;9382;53.242;10.438;2024-01-30T22:58:41;8.10;99.90
18506;DHT22;9382;53.242;10.438;2024-01-30T23:01:17;8.10;99.90
18506;DHT22;9382;53.242;10.438;2024-01-30T23:03:44;8.10;99.90
18506;DHT22;9382;53.242;10.438;2024-01-30T23:06:12;8.00;99.90
18506;DHT22;9382;53.242;10.438;2024-01-30T23:09:10;8.10;99.90
18506;DHT22;9382;53.242;10.438;2024-01-30T23:11:48;8.10;99.90
18506;DHT22;9382;53.242;10.438;2024-01-30T23:14:19;8.10;99.90
18506;DHT22;9382;53.242;10.438;2024-01-30T23:17:01;8.00;99.90
18506;DHT22;9382;53.242;10.438;2024-01-30T23:19:59;8.00;99.90
18506;DHT22;9382;53.242;10.438;2024-01-30T23:22:30;8.00;99.90
18506;DHT22;9382;53.242;10.438;2024-01-30T23:25:00;8.00;99.90
18506;DHT22;9382;53.242;10.438;2024-01-30T23:27:28;7.90;99.90
18506;DHT22;9382;53.242;10.438;2024-01-30T23:29:55;7.90;99.90
18506;DHT22;9382;53.242;10.438;2024-01-30T23:32:22;7.90;99.90
18506;DHT22;9382;53.242;10.438;2024-01-30T23:34:49;7.90;99.90
18506;DHT22;9382;53.242;10.438;2024-01-30T23:37:26;7.80;99.90
18506;DHT22;9382;53.242;10.438;2024-01-30T23:39:54;7.90;99.90
18506;DHT22;9382;53.242;10.438;2024-01-30T23:42:24;7.80;99.90
18506;DHT22;9382;53.242;10.438;2024-01-30T23:45:01;7.80;99.90
18506;DHT22;9382;53.242;10.438;2024-01-30T23:47:28;7.80;99.90
18506;DHT22;9382;53.242;10.438;2024-01-30T23:49:55;7.80;99.90
18506;DHT22;9382;53.242;10.438;2024-01-30T23:52:27;7.80;99.90
18506;DHT22;9382;53.242;10.438;2024-01-30T23:54:56;7.70;99.90
18506;DHT22;9382;53.242;10.438;2024-01-30T23:57:22;7.70;99.90
18506;DHT22;9382;53.242;10.438;2024-01-30T23:59:49;7.70;99.90
